Weather at Miriti Internacional Golfe Marina Helipad

Public forecast

Using degrees Celsius for public forecast. Weather courtesy of forecast.io.

Closest aviation weather report (METAR) to Miriti Internacional Golfe Marina Helipad

Closest report is Val de Cans/Júlio Cezar Ribeiro International Airport, 9.8 nm (18.1 km) WSW. Retrieved 2021/08/02 13:00 UTC (5 minutes ago):

SBBE 021300Z 11006KT CAVOK 30/21 Q1016

Closest aviation forecast (TAF) to Miriti Internacional Golfe Marina Helipad

Closest forecast is Val de Cans/Júlio Cezar Ribeiro International Airport, 9.8 nm (18.1 km) WSW. Retrieved 2021/08/02 12:00 UTC (1 hour ago):

TAF SBBE 020900Z 0212/0312 12005KT 9999 BKN020 TX31/0217Z TN23/0309Z BECMG 0214/0216 14010KT SCT030 FEW045TCU PROB40 0218/0221 5000 SHRA BECMG 0221/0223 07005KT SCT030 BECMG 0306/0308 00000KT 7000 FEW015 RMK PGU